createdAt,value
2022-11-29T00:00:26.047Z,5.18
2022-11-29T00:02:56.600Z,4.80
2022-11-29T00:05:24.772Z,4.75
2022-11-29T00:07:53.029Z,5.13
2022-11-29T00:10:21.115Z,5.15
2022-11-29T00:12:49.307Z,4.22
2022-11-29T00:15:17.524Z,4.55
2022-11-29T00:17:49.326Z,3.80
2022-11-29T00:20:17.496Z,3.83
2022-11-29T00:22:45.602Z,4.10
2022-11-29T00:25:13.729Z,4.03
2022-11-29T00:27:42.312Z,4.53
2022-11-29T00:30:11.390Z,4.93
2022-11-29T00:32:39.408Z,4.68
2022-11-29T00:35:10.048Z,4.88
2022-11-29T00:37:42.639Z,5.28
2022-11-29T00:40:11.453Z,4.50
2022-11-29T00:42:41.629Z,4.03
2022-11-29T00:45:10.628Z,4.88
2022-11-29T00:47:40.742Z,4.40
2022-11-29T00:50:11.045Z,3.88
2022-11-29T00:52:39.032Z,3.97
2022-11-29T00:55:08.111Z,3.78
2022-11-29T00:57:36.107Z,4.55
2022-11-29T01:00:08.630Z,4.20
2022-11-29T01:02:38.681Z,4.05
2022-11-29T01:05:10.607Z,4.65
2022-11-29T01:07:38.604Z,5.10
2022-11-29T01:10:08.517Z,4.15
2022-11-29T01:12:37.313Z,4.32
2022-11-29T01:15:06.327Z,4.68
2022-11-29T01:17:36.396Z,5.60
2022-11-29T01:20:05.515Z,5.20
2022-11-29T01:22:35.484Z,5.05
2022-11-29T01:25:03.756Z,5.28
2022-11-29T01:27:31.987Z,5.07
2022-11-29T01:30:00.092Z,5.65
2022-11-29T01:32:28.555Z,5.22
2022-11-29T01:34:56.640Z,4.60
2022-11-29T01:37:24.994Z,5.00
2022-11-29T01:39:54.341Z,5.43
2022-11-29T01:42:22.671Z,5.65
2022-11-29T01:45:21.548Z,5.18
2022-11-29T01:47:54.057Z,5.35
2022-11-29T01:50:24.951Z,5.75
2022-11-29T01:52:53.472Z,7.15
2022-11-29T01:55:25.691Z,5.78
2022-11-29T01:57:53.891Z,6.30
2022-11-29T02:00:22.343Z,7.13
2022-11-29T02:03:58.054Z,6.85
2022-11-29T02:06:26.700Z,6.50
2022-11-29T02:08:58.418Z,6.80
2022-11-29T02:11:55.402Z,6.30
2022-11-29T02:14:41.452Z,5.22
2022-11-29T02:17:22.120Z,5.82
2022-11-29T02:20:33.250Z,6.40
2022-11-29T02:23:19.275Z,5.28
2022-11-29T02:26:04.251Z,5.13
2022-11-29T02:29:05.509Z,7.80
2022-11-29T02:32:08.391Z,7.82
2022-11-29T02:34:54.528Z,6.53
2022-11-29T02:37:51.511Z,5.68
2022-11-29T02:40:46.188Z,4.32
2022-11-29T02:43:33.614Z,5.03
2022-11-29T02:46:13.799Z,4.68
2022-11-29T02:48:56.806Z,5.78
2022-11-29T02:51:33.824Z,5.25
2022-11-29T02:54:09.244Z,5.22
2022-11-29T02:56:44.218Z,5.18
2022-11-29T02:59:18.243Z,4.05
2022-11-29T03:01:58.984Z,4.15
2022-11-29T03:04:35.710Z,4.38
2022-11-29T03:07:14.493Z,4.18
2022-11-29T03:09:54.532Z,4.72
2022-11-29T03:12:31.468Z,4.63
2022-11-29T03:15:11.146Z,4.28
2022-11-29T03:17:53.084Z,4.80
2022-11-29T03:20:36.481Z,3.83
2022-11-29T03:23:17.285Z,4.47
2022-11-29T03:25:50.245Z,3.78
2022-11-29T03:28:22.981Z,4.93
2022-11-29T03:30:58.536Z,4.82
2022-11-29T03:33:39.639Z,3.75
2022-11-29T03:36:15.262Z,4.22
2022-11-29T03:38:48.138Z,4.53
2022-11-29T03:41:26.476Z,4.20
2022-11-29T03:44:02.345Z,3.78
2022-11-29T03:46:36.292Z,4.53
2022-11-29T03:49:10.765Z,3.80
2022-11-29T03:51:59.851Z,3.42
2022-11-29T03:54:36.418Z,3.70
2022-11-29T03:57:05.021Z,4.32
2022-11-29T03:59:48.967Z,3.15
2022-11-29T04:02:55.267Z,4.28
2022-11-29T04:05:56.673Z,4.10
2022-11-29T04:08:56.912Z,3.90
2022-11-29T04:11:59.168Z,4.60
2022-11-29T04:15:02.428Z,4.00
2022-11-29T04:17:46.959Z,3.63
2022-11-29T04:20:50.976Z,3.95
2022-11-29T04:26:38.751Z,4.07
2022-11-29T04:29:21.538Z,4.00
2022-11-29T04:32:14.874Z,4.57
2022-11-29T04:35:05.522Z,4.07
2022-11-29T04:37:50.369Z,3.40
2022-11-29T04:40:34.900Z,3.67
2022-11-29T04:43:25.328Z,3.85
2022-11-29T04:46:37.572Z,3.60
2022-11-29T04:49:34.868Z,3.10
2022-11-29T04:52:20.211Z,3.97
2022-11-29T04:54:55.769Z,3.35
2022-11-29T04:57:34.047Z,4.50
2022-11-29T05:00:09.850Z,3.35
2022-11-29T05:02:52.405Z,3.58
2022-11-29T05:05:31.029Z,3.67
2022-11-29T05:08:16.512Z,3.60
2022-11-29T05:10:53.657Z,3.30
2022-11-29T05:13:30.077Z,4.75
2022-11-29T05:16:15.744Z,3.25
2022-11-29T05:19:16.337Z,3.53
2022-11-29T05:21:56.494Z,3.58
2022-11-29T05:24:42.277Z,3.70
2022-11-29T05:27:17.907Z,3.80
2022-11-29T05:29:55.949Z,3.55
2022-11-29T05:32:36.013Z,4.07
2022-11-29T05:35:29.735Z,3.88
2022-11-29T05:40:42.032Z,3.92
2022-11-29T05:43:38.121Z,3.97
2022-11-29T05:46:13.812Z,3.75
2022-11-29T05:48:54.068Z,3.35
2022-11-29T05:51:35.043Z,3.88
2022-11-29T05:54:14.866Z,2.63
2022-11-29T05:56:53.966Z,3.97
2022-11-29T05:59:27.626Z,3.28
2022-11-29T06:02:05.841Z,3.72
2022-11-29T06:04:50.963Z,3.95
2022-11-29T06:07:27.414Z,3.42
2022-11-29T06:10:01.798Z,3.78
2022-11-29T06:12:36.322Z,4.22
2022-11-29T06:15:47.664Z,4.70
2022-11-29T06:19:00.128Z,4.28
2022-11-29T06:21:40.270Z,3.88
2022-11-29T06:24:30.124Z,4.20
2022-11-29T06:27:19.118Z,4.45
2022-11-29T06:29:54.839Z,3.50
2022-11-29T06:32:36.992Z,4.20
2022-11-29T06:35:11.052Z,3.90
2022-11-29T06:37:42.900Z,4.25
2022-11-29T06:40:15.801Z,4.53
2022-11-29T06:42:44.305Z,3.97
2022-11-29T06:45:17.190Z,3.72
2022-11-29T06:47:50.193Z,4.10
2022-11-29T06:50:29.323Z,4.03
2022-11-29T06:53:05.126Z,4.05
2022-11-29T06:55:43.683Z,3.30
2022-11-29T06:58:35.647Z,3.38
2022-11-29T07:01:14.491Z,4.30
2022-11-29T07:05:07.568Z,4.28
2022-11-29T07:07:35.920Z,3.30
2022-11-29T07:10:12.007Z,3.58
2022-11-29T07:12:47.752Z,3.85
2022-11-29T07:15:20.244Z,3.90
2022-11-29T07:18:04.134Z,3.70
2022-11-29T07:20:43.280Z,4.10
2022-11-29T07:23:22.097Z,3.05
2022-11-29T07:25:59.086Z,3.40
2022-11-29T07:28:42.071Z,3.92
2022-11-29T07:31:19.797Z,4.03
2022-11-29T07:33:56.349Z,3.75
2022-11-29T07:36:40.080Z,3.88
2022-11-29T07:39:22.451Z,3.05
2022-11-29T07:42:01.280Z,3.88
2022-11-29T07:44:37.626Z,3.80
2022-11-29T07:47:05.948Z,3.58
2022-11-29T07:49:34.023Z,3.40
2022-11-29T07:52:05.830Z,3.33
2022-11-29T07:54:33.827Z,3.17
2022-11-29T07:57:02.059Z,3.45
2022-11-29T07:59:32.051Z,3.50
2022-11-29T08:02:00.264Z,3.28
2022-11-29T08:04:28.279Z,3.38
2022-11-29T08:07:00.598Z,3.78
2022-11-29T08:09:32.464Z,4.43
2022-11-29T08:12:00.780Z,3.63
2022-11-29T08:14:32.514Z,3.35
2022-11-29T08:17:00.687Z,3.45
2022-11-29T08:19:28.650Z,3.03
2022-11-29T08:21:56.991Z,3.40
2022-11-29T08:24:26.250Z,3.50
2022-11-29T08:26:55.889Z,3.55
2022-11-29T08:29:25.980Z,3.55
2022-11-29T08:31:55.650Z,3.63
2022-11-29T08:34:24.898Z,3.60
2022-11-29T08:36:56.005Z,3.67
2022-11-29T08:39:24.958Z,3.55
2022-11-29T08:41:53.205Z,3.55
2022-11-29T08:44:22.656Z,3.08
2022-11-29T08:47:11.065Z,2.95
2022-11-29T08:50:00.004Z,3.97
2022-11-29T08:52:45.988Z,3.42
2022-11-29T08:55:14.199Z,3.13
2022-11-29T08:57:42.643Z,2.90
2022-11-29T09:00:13.649Z,3.28
2022-11-29T09:02:42.008Z,3.10
2022-11-29T09:05:11.432Z,3.25
2022-11-29T09:07:40.442Z,3.63
2022-11-29T09:10:11.327Z,3.45
2022-11-29T09:12:40.524Z,3.05
2022-11-29T09:15:14.907Z,3.40
2022-11-29T09:17:43.155Z,2.83
2022-11-29T09:20:12.182Z,2.78
2022-11-29T09:22:40.226Z,3.42
2022-11-29T09:25:08.977Z,2.95
2022-11-29T09:27:41.624Z,3.28
2022-11-29T09:30:10.895Z,2.80
2022-11-29T09:32:40.672Z,2.45
2022-11-29T09:35:09.553Z,3.25
2022-11-29T09:37:38.040Z,3.53
2022-11-29T09:40:07.209Z,5.22
2022-11-29T09:42:48.779Z,2.75
2022-11-29T09:45:20.748Z,3.05
2022-11-29T09:48:31.103Z,3.25
2022-11-29T09:51:11.125Z,3.38
2022-11-29T09:53:58.038Z,3.90
2022-11-29T09:56:35.373Z,3.10
2022-11-29T09:59:10.992Z,3.60
2022-11-29T10:01:45.892Z,3.92
2022-11-29T10:04:20.409Z,3.63
2022-11-29T10:06:55.369Z,4.15
2022-11-29T10:09:33.309Z,3.30
2022-11-29T10:12:13.689Z,3.78
2022-11-29T10:14:47.445Z,3.30
2022-11-29T10:17:29.398Z,3.63
2022-11-29T10:20:04.585Z,4.32
2022-11-29T10:22:41.651Z,4.00
2022-11-29T10:25:14.033Z,4.53
2022-11-29T10:27:42.024Z,5.07
2022-11-29T10:30:16.548Z,3.92
2022-11-29T10:32:47.543Z,3.58
2022-11-29T10:35:19.725Z,3.90
2022-11-29T10:38:29.214Z,3.88
2022-11-29T10:40:48.562Z,4.28
2022-11-29T10:43:16.674Z,3.63
2022-11-29T10:45:50.543Z,4.32
2022-11-29T10:48:21.314Z,3.90
2022-11-29T10:50:52.767Z,3.20
2022-11-29T10:53:24.295Z,4.82
2022-11-29T10:56:00.931Z,3.78
2022-11-29T10:58:30.670Z,3.67
2022-11-29T11:01:02.070Z,3.55
2022-11-29T11:03:36.587Z,4.25
2022-11-29T11:06:13.770Z,4.32
2022-11-29T11:08:44.709Z,3.83
2022-11-29T11:11:23.907Z,4.38
2022-11-29T11:14:00.108Z,4.68
2022-11-29T11:16:35.572Z,3.58
2022-11-29T11:19:30.389Z,4.22
2022-11-29T11:22:04.463Z,4.10
2022-11-29T11:24:35.155Z,4.57
2022-11-29T11:27:05.881Z,4.32
2022-11-29T11:29:39.076Z,4.63
2022-11-29T11:34:52.488Z,5.63
2022-11-29T11:37:25.413Z,4.70
2022-11-29T11:39:55.956Z,4.13
2022-11-29T11:42:40.671Z,4.35
2022-11-29T11:45:27.735Z,4.60
2022-11-29T11:47:59.032Z,6.28
2022-11-29T11:50:33.931Z,5.60
2022-11-29T11:53:08.665Z,5.05
2022-11-29T11:55:40.649Z,4.82
2022-11-29T11:58:19.186Z,4.88
2022-11-29T12:01:06.556Z,3.90
2022-11-29T12:06:04.635Z,5.32
2022-11-29T12:08:35.373Z,5.07
2022-11-29T12:11:08.549Z,4.93
2022-11-29T12:13:40.845Z,5.07
2022-11-29T12:16:16.076Z,4.53
2022-11-29T12:18:51.285Z,4.85
2022-11-29T12:21:26.721Z,4.40
2022-11-29T12:24:01.245Z,5.55
2022-11-29T12:26:56.575Z,5.03
2022-11-29T12:29:22.418Z,3.78
2022-11-29T12:32:08.566Z,4.43
2022-11-29T12:34:54.747Z,5.88
2022-11-29T12:37:36.727Z,4.22
2022-11-29T12:40:11.208Z,5.30
2022-11-29T12:42:52.261Z,5.45
2022-11-29T12:45:36.837Z,4.95
2022-11-29T12:48:18.820Z,4.13
2022-11-29T12:51:01.713Z,5.05
2022-11-29T12:53:46.251Z,4.85
2022-11-29T12:56:18.458Z,3.88
2022-11-29T12:58:57.416Z,3.90
2022-11-29T13:01:33.286Z,4.32
2022-11-29T13:04:14.442Z,3.63
2022-11-29T13:06:50.588Z,4.03
2022-11-29T13:09:39.777Z,3.90
2022-11-29T13:12:17.793Z,3.80
2022-11-29T13:14:51.912Z,2.97
2022-11-29T13:17:31.582Z,3.70
2022-11-29T13:20:05.229Z,3.67
2022-11-29T13:22:42.745Z,4.00
2022-11-29T13:25:18.819Z,3.05
2022-11-29T13:27:55.038Z,3.88
2022-11-29T13:30:23.189Z,3.75
2022-11-29T13:32:58.728Z,3.72
2022-11-29T13:35:39.043Z,3.65
2022-11-29T13:38:14.667Z,4.47
2022-11-29T13:40:55.915Z,3.08
2022-11-29T13:43:34.076Z,4.07
2022-11-29T13:46:16.848Z,3.90
2022-11-29T13:48:49.845Z,3.83
2022-11-29T13:51:34.053Z,3.38
2022-11-29T13:54:04.269Z,3.35
2022-11-29T13:56:46.256Z,3.23
2022-11-29T13:59:20.346Z,3.63
2022-11-29T14:01:53.920Z,3.42
2022-11-29T14:04:37.321Z,2.67
2022-11-29T14:07:11.594Z,2.92
2022-11-29T14:09:51.623Z,4.50
2022-11-29T14:12:31.274Z,3.08
2022-11-29T14:15:02.542Z,3.55
2022-11-29T14:17:37.237Z,2.80
2022-11-29T14:21:00.819Z,3.65
2022-11-29T14:23:46.916Z,3.72
2022-11-29T14:26:32.986Z,3.58
2022-11-29T14:29:02.434Z,3.25
2022-11-29T14:31:54.919Z,3.33
2022-11-29T14:34:36.194Z,16.25
2022-11-29T14:37:15.641Z,11.07
2022-11-29T14:39:51.882Z,5.82
2022-11-29T14:42:21.944Z,5.13
2022-11-29T14:44:54.202Z,3.88
2022-11-29T14:47:29.857Z,3.97
2022-11-29T14:49:59.713Z,4.05
2022-11-29T14:52:30.924Z,4.75
2022-11-29T14:55:01.846Z,2.80
2022-11-29T14:57:54.678Z,4.05
2022-11-29T15:00:27.087Z,5.70
2022-11-29T15:03:09.728Z,4.13
2022-11-29T15:05:41.238Z,3.72
2022-11-29T15:08:18.951Z,3.97
2022-11-29T15:10:51.623Z,4.43
2022-11-29T15:13:27.059Z,4.15
2022-11-29T15:16:28.823Z,4.70
2022-11-29T15:19:19.135Z,4.47
2022-11-29T15:21:57.137Z,4.85
2022-11-29T15:24:28.501Z,12.23
2022-11-29T15:26:58.196Z,4.75
2022-11-29T15:29:28.282Z,4.78
2022-11-29T15:31:59.067Z,4.10
2022-11-29T15:34:32.366Z,3.67
2022-11-29T15:37:01.375Z,3.83
2022-11-29T15:39:33.950Z,4.88
2022-11-29T15:42:04.152Z,4.18
2022-11-29T15:44:33.791Z,3.47
2022-11-29T15:47:23.483Z,4.60
2022-11-29T15:49:52.553Z,3.80
2022-11-29T15:52:27.936Z,4.80
2022-11-29T15:55:00.598Z,4.15
2022-11-29T15:57:36.054Z,4.13
2022-11-29T16:00:08.205Z,4.32
2022-11-29T16:02:41.927Z,4.57
2022-11-29T16:05:17.319Z,4.20
2022-11-29T16:07:47.118Z,4.60
2022-11-29T16:10:20.732Z,4.20
2022-11-29T16:12:54.367Z,4.50
2022-11-29T16:15:29.532Z,4.10
2022-11-29T16:18:04.256Z,3.97
2022-11-29T16:20:35.231Z,3.97
2022-11-29T16:23:05.332Z,4.30
2022-11-29T16:25:51.986Z,4.47
2022-11-29T16:28:22.376Z,4.03
2022-11-29T16:30:53.280Z,4.63
2022-11-29T16:33:25.610Z,3.83
2022-11-29T16:36:05.934Z,5.43
2022-11-29T16:38:34.185Z,4.70
2022-11-29T16:41:05.287Z,4.70
2022-11-29T16:43:54.130Z,4.72
2022-11-29T16:46:35.444Z,5.25
2022-11-29T16:49:31.657Z,5.25
2022-11-29T16:52:02.911Z,4.55
2022-11-29T16:54:33.982Z,4.38
2022-11-29T16:57:05.801Z,4.95
2022-11-29T16:59:35.309Z,6.03
2022-11-29T17:02:03.908Z,5.13
2022-11-29T17:06:58.833Z,5.45
2022-11-29T17:09:29.350Z,4.80
2022-11-29T17:12:00.000Z,5.35
2022-11-29T17:14:28.673Z,14.13
2022-11-29T17:16:57.032Z,6.72
2022-11-29T17:19:25.517Z,5.18
2022-11-29T17:21:56.099Z,5.85
2022-11-29T17:24:30.279Z,5.43
2022-11-29T17:27:00.950Z,4.05
2022-11-29T17:29:34.282Z,5.80
2022-11-29T17:32:02.765Z,4.70
2022-11-29T17:34:31.029Z,5.82
2022-11-29T17:37:01.577Z,3.85
2022-11-29T17:39:31.133Z,5.50
2022-11-29T17:42:01.658Z,10.63
2022-11-29T17:44:34.155Z,7.65
2022-11-29T17:47:02.311Z,5.32
2022-11-29T17:49:30.585Z,5.50
2022-11-29T17:51:58.703Z,5.13
2022-11-29T17:54:26.658Z,4.60
2022-11-29T17:56:56.441Z,6.18
2022-11-29T17:59:27.537Z,5.43
2022-11-29T18:01:55.660Z,6.10
2022-11-29T18:04:23.887Z,5.50
2022-11-29T18:06:51.786Z,6.03
2022-11-29T18:09:20.604Z,5.78
2022-11-29T18:11:50.579Z,6.25
2022-11-29T18:14:22.773Z,5.72
2022-11-29T18:16:51.156Z,5.70
2022-11-29T18:19:21.094Z,6.63
2022-11-29T18:21:52.452Z,4.88
2022-11-29T18:24:21.023Z,5.50
2022-11-29T18:26:51.867Z,6.50
2022-11-29T18:29:23.540Z,5.90
2022-11-29T18:31:51.579Z,6.05
2022-11-29T18:34:22.299Z,15.90
2022-11-29T18:36:53.502Z,9.43
2022-11-29T18:39:25.136Z,6.28
2022-11-29T18:41:53.538Z,5.40
2022-11-29T18:44:29.262Z,6.03
2022-11-29T18:46:57.873Z,6.13
2022-11-29T18:49:26.165Z,5.95
2022-11-29T18:51:54.212Z,6.07
2022-11-29T18:54:22.385Z,6.20
2022-11-29T18:56:51.788Z,5.43
2022-11-29T18:59:20.000Z,5.68
2022-11-29T19:01:51.530Z,6.10
2022-11-29T19:04:21.010Z,6.25
2022-11-29T19:06:49.696Z,6.60
2022-11-29T19:09:20.827Z,5.63
2022-11-29T19:11:49.689Z,6.22
2022-11-29T19:14:20.463Z,6.47
2022-11-29T19:16:49.909Z,6.20
2022-11-29T19:19:19.796Z,6.45
2022-11-29T19:21:48.113Z,7.40
2022-11-29T19:24:18.844Z,6.05
2022-11-29T19:26:49.661Z,6.20
2022-11-29T19:29:17.751Z,6.22
2022-11-29T19:31:45.870Z,6.15
2022-11-29T19:34:14.155Z,5.50
2022-11-29T19:36:44.733Z,6.60
2022-11-29T19:39:14.822Z,21.17
2022-11-29T19:41:44.793Z,7.93
2022-11-29T19:44:13.724Z,7.18
2022-11-29T19:46:43.911Z,5.47
2022-11-29T19:49:12.598Z,5.85
2022-11-29T19:51:40.897Z,6.45
2022-11-29T19:54:11.982Z,6.05
2022-11-29T19:59:10.571Z,6.90
2022-11-29T20:01:41.797Z,6.60
2022-11-29T20:04:12.794Z,6.73
2022-11-29T20:06:45.383Z,5.60
2022-11-29T20:09:15.000Z,5.28
2022-11-29T20:11:45.219Z,5.85
2022-11-29T20:14:17.819Z,5.97
2022-11-29T20:16:48.350Z,5.22
2022-11-29T20:19:17.979Z,5.70
2022-11-29T20:21:48.744Z,6.20
2022-11-29T20:24:19.531Z,5.93
2022-11-29T20:26:48.988Z,7.28
2022-11-29T20:29:17.409Z,6.32
2022-11-29T20:31:51.472Z,6.13
2022-11-29T20:34:20.684Z,6.47
2022-11-29T20:37:15.536Z,7.40
2022-11-29T20:39:51.297Z,6.50
2022-11-29T20:42:45.387Z,6.30
2022-11-29T20:45:15.812Z,6.13
2022-11-29T20:47:51.504Z,5.95
2022-11-29T20:50:23.768Z,4.60
2022-11-29T20:53:04.001Z,5.57
2022-11-29T20:55:33.646Z,6.32
2022-11-29T20:58:01.694Z,5.95
2022-11-29T21:00:32.357Z,6.30
2022-11-29T21:03:00.488Z,5.72
2022-11-29T21:05:29.117Z,4.57
2022-11-29T21:07:57.442Z,4.70
2022-11-29T21:10:25.497Z,4.65
2022-11-29T21:12:56.179Z,4.72
2022-11-29T21:15:24.753Z,6.30
2022-11-29T21:17:53.477Z,4.85
2022-11-29T21:20:26.303Z,4.53
2022-11-29T21:23:02.917Z,4.85
2022-11-29T21:25:43.063Z,4.88
2022-11-29T21:28:15.299Z,4.50
2022-11-29T21:30:44.414Z,5.38
2022-11-29T21:33:13.015Z,5.30
2022-11-29T21:35:43.486Z,4.90
2022-11-29T21:38:14.422Z,5.35
2022-11-29T21:40:42.493Z,4.72
2022-11-29T21:43:12.055Z,5.15
2022-11-29T21:45:40.074Z,5.88
2022-11-29T21:48:30.588Z,5.93
2022-11-29T21:50:58.623Z,6.40
2022-11-29T21:53:29.117Z,5.80
2022-11-29T21:55:58.234Z,4.45
2022-11-29T21:58:30.249Z,5.57
2022-11-29T22:00:58.944Z,6.28
2022-11-29T22:03:26.966Z,5.32
2022-11-29T22:08:00.300Z,5.18
2022-11-29T22:10:28.741Z,5.68
2022-11-29T22:12:59.330Z,5.10
2022-11-29T22:15:29.113Z,5.32
2022-11-29T22:17:57.387Z,4.20
2022-11-29T22:20:25.809Z,5.65
2022-11-29T22:22:58.516Z,7.03
2022-11-29T22:25:28.228Z,6.78
2022-11-29T22:27:58.705Z,5.45
2022-11-29T22:30:26.823Z,5.45
2022-11-29T22:32:56.797Z,5.50
2022-11-29T22:35:24.883Z,5.97
2022-11-29T22:37:53.349Z,7.50
2022-11-29T22:40:21.378Z,6.57
2022-11-29T22:42:50.963Z,6.97
2022-11-29T22:45:18.993Z,7.82
2022-11-29T22:47:47.098Z,5.63
2022-11-29T22:50:18.007Z,5.97
2022-11-29T22:52:46.501Z,7.13
2022-11-29T22:55:16.685Z,6.88
2022-11-29T22:57:45.150Z,6.60
2022-11-29T23:00:15.615Z,6.70
2022-11-29T23:02:43.841Z,8.35
2022-11-29T23:05:12.064Z,8.38
2022-11-29T23:07:43.320Z,8.68
2022-11-29T23:10:21.284Z,7.78
2022-11-29T23:12:49.606Z,8.98
2022-11-29T23:15:20.981Z,7.88
2022-11-29T23:17:51.775Z,7.43
2022-11-29T23:20:19.951Z,7.05
2022-11-29T23:22:51.052Z,7.32
2022-11-29T23:25:19.216Z,7.45
2022-11-29T23:27:47.570Z,8.80
2022-11-29T23:30:15.986Z,8.52
2022-11-29T23:32:45.648Z,8.38
2022-11-29T23:35:13.746Z,7.90
2022-11-29T23:37:42.133Z,7.38
2022-11-29T23:40:11.460Z,8.82
2022-11-29T23:42:45.075Z,8.27
2022-11-29T23:45:15.417Z,7.03
2022-11-29T23:47:47.849Z,8.65
2022-11-29T23:50:15.937Z,8.48
2022-11-29T23:52:53.216Z,8.05
2022-11-29T23:55:21.151Z,8.32
2022-11-29T23:57:49.254Z,8.40
